createdAt,value
2019-04-27T00:02:05.745Z,7.08
2019-04-27T00:04:37.050Z,6.90
2019-04-27T00:07:25.930Z,9.75
2019-04-27T00:09:58.183Z,6.55
2019-04-27T00:12:28.103Z,7.40
2019-04-27T00:14:58.790Z,7.28
2019-04-27T00:17:45.831Z,8.28
2019-04-27T00:20:23.989Z,6.00
2019-04-27T00:22:56.239Z,6.47
2019-04-27T00:25:26.956Z,10.13
2019-04-27T00:27:57.326Z,7.50
2019-04-27T00:30:26.758Z,10.82
2019-04-27T00:32:57.119Z,8.60
2019-04-27T00:35:31.258Z,8.60
2019-04-27T00:40:38.172Z,9.00
2019-04-27T00:43:09.553Z,6.75
2019-04-27T00:45:40.378Z,9.68
2019-04-27T00:48:09.802Z,11.28
2019-04-27T00:50:43.908Z,8.83
2019-04-27T00:53:17.704Z,8.53
2019-04-27T00:58:25.002Z,9.38
2019-04-27T01:01:04.950Z,9.28
2019-04-27T01:03:37.403Z,14.28
2019-04-27T01:06:06.950Z,10.68
2019-04-27T01:08:36.238Z,12.55
2019-04-27T01:11:11.957Z,11.10
2019-04-27T01:13:43.457Z,11.00
2019-04-27T01:16:15.632Z,10.82
2019-04-27T01:18:43.846Z,14.00
2019-04-27T01:21:13.147Z,8.95
2019-04-27T01:23:42.701Z,11.57
2019-04-27T01:26:15.186Z,11.85
2019-04-27T01:28:48.958Z,9.75
2019-04-27T01:31:20.731Z,9.85
2019-04-27T01:33:53.031Z,10.60
2019-04-27T01:36:22.395Z,8.03
2019-04-27T01:38:51.669Z,9.33
2019-04-27T01:41:20.994Z,8.85
2019-04-27T01:43:51.827Z,8.93
2019-04-27T01:46:21.110Z,9.83
2019-04-27T01:48:53.444Z,11.12
2019-04-27T01:51:22.752Z,9.65
2019-04-27T01:53:52.019Z,7.62
2019-04-27T01:56:25.395Z,8.18
2019-04-27T01:58:55.431Z,4.62
2019-04-27T02:01:38.981Z,6.65
2019-04-27T02:04:19.781Z,5.03
2019-04-27T02:06:50.727Z,6.95
2019-04-27T02:09:20.738Z,7.25
2019-04-27T02:11:50.494Z,6.85
2019-04-27T02:14:19.839Z,4.65
2019-04-27T02:16:49.370Z,5.78
2019-04-27T02:19:19.349Z,8.20
2019-04-27T02:21:49.452Z,7.28
2019-04-27T02:24:19.972Z,4.85
2019-04-27T02:26:49.726Z,5.70
2019-04-27T02:29:23.449Z,7.12
2019-04-27T02:32:01.137Z,6.70
2019-04-27T02:34:33.744Z,7.45
2019-04-27T02:37:03.072Z,5.87
2019-04-27T02:39:32.390Z,7.80
2019-04-27T02:42:01.698Z,6.30
2019-04-27T02:44:40.069Z,6.12
2019-04-27T02:47:10.500Z,9.00
2019-04-27T02:49:41.075Z,8.88
2019-04-27T02:52:15.651Z,6.45
2019-04-27T02:54:44.939Z,8.48
2019-04-27T02:57:14.240Z,10.63
2019-04-27T03:00:14.641Z,9.43
2019-04-27T03:02:45.656Z,10.55
2019-04-27T03:05:20.921Z,11.88
2019-04-27T03:07:51.385Z,11.43
2019-04-27T03:10:20.663Z,12.60
2019-04-27T03:13:13.223Z,9.35
2019-04-27T03:15:54.384Z,12.65
2019-04-27T03:18:32.279Z,9.55
2019-04-27T03:21:07.378Z,8.23
2019-04-27T03:23:36.945Z,8.85
2019-04-27T03:26:10.538Z,10.25
2019-04-27T03:28:41.199Z,10.60
2019-04-27T03:31:13.665Z,9.05
2019-04-27T03:33:45.613Z,9.53
2019-04-27T03:38:49.827Z,6.50
2019-04-27T03:41:20.604Z,10.80
2019-04-27T03:43:52.675Z,7.55
2019-04-27T03:46:25.199Z,8.80
2019-04-27T03:48:54.494Z,9.75
2019-04-27T03:51:26.666Z,10.50
2019-04-27T03:54:01.240Z,14.20
2019-04-27T03:56:41.747Z,16.00
2019-04-27T03:59:16.155Z,20.02
2019-04-27T04:01:46.482Z,17.25
2019-04-27T04:04:19.555Z,21.17
2019-04-27T04:06:51.479Z,27.40
2019-04-27T04:09:25.611Z,21.57
2019-04-27T04:12:05.192Z,25.25
2019-04-27T04:14:42.660Z,24.20
2019-04-27T04:17:13.701Z,29.65
2019-04-27T04:19:53.973Z,27.45
2019-04-27T04:22:15.043Z,28.15
2019-04-27T04:24:45.472Z,29.10
2019-04-27T04:27:19.954Z,28.80
2019-04-27T04:29:53.794Z,31.12
2019-04-27T04:32:23.785Z,30.27
2019-04-27T04:34:54.316Z,25.00
2019-04-27T04:37:23.617Z,24.98
2019-04-27T04:39:59.685Z,20.35
2019-04-27T04:42:33.007Z,17.85
2019-04-27T04:45:10.558Z,13.00
2019-04-27T04:47:42.339Z,8.05
2019-04-27T04:50:14.944Z,4.70
2019-04-27T04:52:44.349Z,4.33
2019-04-27T04:55:20.541Z,4.70
2019-04-27T04:57:50.601Z,8.05
2019-04-27T05:00:20.119Z,8.03
2019-04-27T05:02:49.431Z,5.20
2019-04-27T05:05:32.256Z,6.05
2019-04-27T05:08:01.552Z,8.00
2019-04-27T05:10:34.907Z,6.58
2019-04-27T05:13:04.190Z,9.68
2019-04-27T05:15:35.963Z,8.88
2019-04-27T05:18:05.252Z,7.37
2019-04-27T05:20:39.688Z,7.15
2019-04-27T05:23:10.202Z,7.30
2019-04-27T05:25:40.226Z,5.45
2019-04-27T05:28:09.924Z,4.78
2019-04-27T05:30:40.286Z,11.20
2019-04-27T05:33:09.590Z,8.38
2019-04-27T05:35:41.408Z,10.85
2019-04-27T05:38:13.385Z,7.47
2019-04-27T05:40:42.256Z,11.30
2019-04-27T05:43:14.399Z,8.05
2019-04-27T05:46:01.631Z,7.50
2019-04-27T05:48:34.311Z,7.83
2019-04-27T05:51:05.154Z,6.55
2019-04-27T05:53:36.422Z,6.55
2019-04-27T05:56:09.253Z,6.58
2019-04-27T05:58:39.189Z,4.25
2019-04-27T06:01:11.275Z,3.75
2019-04-27T06:03:41.903Z,4.70
2019-04-27T06:06:11.199Z,4.30
2019-04-27T06:08:40.903Z,5.10
2019-04-27T06:11:10.778Z,3.20
2019-04-27T06:13:42.954Z,5.17
2019-04-27T06:16:19.325Z,3.22
2019-04-27T06:18:45.741Z,3.17
2019-04-27T06:21:15.055Z,3.47
2019-04-27T06:23:48.902Z,3.80
2019-04-27T06:26:21.143Z,4.50
2019-04-27T06:28:50.555Z,3.87
2019-04-27T06:31:21.412Z,3.83
2019-04-27T06:33:52.438Z,5.20
2019-04-27T06:36:21.973Z,3.33
2019-04-27T06:38:51.254Z,4.15
2019-04-27T06:41:22.919Z,4.12
2019-04-27T06:43:56.199Z,5.50
2019-04-27T06:46:25.505Z,3.77
2019-04-27T06:48:59.427Z,3.05
2019-04-27T06:51:49.887Z,5.45
2019-04-27T06:54:23.096Z,3.92
2019-04-27T06:56:55.410Z,2.85
2019-04-27T06:59:33.304Z,6.42
2019-04-27T07:02:08.672Z,4.37
2019-04-27T07:04:39.660Z,3.15
2019-04-27T07:07:12.198Z,5.10
2019-04-27T07:09:44.434Z,4.42
2019-04-27T07:12:14.224Z,3.22
2019-04-27T07:14:52.935Z,5.05
2019-04-27T07:17:19.181Z,4.70
2019-04-27T07:19:50.609Z,5.22
2019-04-27T07:22:20.135Z,5.72
2019-04-27T07:24:52.312Z,7.28
2019-04-27T07:27:29.173Z,7.50
2019-04-27T07:30:04.191Z,6.22
2019-04-27T07:32:36.108Z,6.65
2019-04-27T07:35:17.528Z,7.70
2019-04-27T07:37:49.761Z,6.97
2019-04-27T07:40:22.023Z,5.62
2019-04-27T07:42:59.614Z,9.48
2019-04-27T07:45:34.471Z,6.45
2019-04-27T07:48:09.156Z,6.85
2019-04-27T07:50:39.710Z,6.05
2019-04-27T07:53:24.096Z,5.55
2019-04-27T07:58:54.461Z,8.10
2019-04-27T08:01:29.410Z,6.97
2019-04-27T08:04:00.067Z,8.08
2019-04-27T08:06:30.645Z,8.90
2019-04-27T08:09:01.511Z,7.53
2019-04-27T08:11:32.666Z,8.73
2019-04-27T08:14:03.177Z,7.37
2019-04-27T08:16:32.610Z,8.35
2019-04-27T08:19:10.233Z,9.20
2019-04-27T08:21:44.613Z,9.05
2019-04-27T08:24:11.396Z,10.03
2019-04-27T08:27:00.881Z,10.03
2019-04-27T08:29:39.338Z,8.90
2019-04-27T08:32:10.646Z,8.73
2019-04-27T08:34:40.286Z,7.15
2019-04-27T08:37:11.963Z,10.58
2019-04-27T08:39:42.049Z,8.60
2019-04-27T08:42:16.133Z,8.50
2019-04-27T08:47:20.304Z,9.13
2019-04-27T08:49:51.470Z,10.28
2019-04-27T08:52:21.834Z,9.88
2019-04-27T08:54:52.742Z,8.25
2019-04-27T08:57:23.313Z,9.48
2019-04-27T08:59:54.909Z,9.48
2019-04-27T09:02:38.954Z,8.25
2019-04-27T09:04:57.304Z,9.90
2019-04-27T09:07:37.290Z,9.33
2019-04-27T09:10:15.714Z,9.05
2019-04-27T09:13:01.459Z,9.43
2019-04-27T09:15:33.282Z,8.50
2019-04-27T09:18:03.242Z,8.70
2019-04-27T09:20:40.301Z,9.00
2019-04-27T09:23:10.864Z,9.63
2019-04-27T09:25:44.087Z,8.83
2019-04-27T09:28:14.597Z,8.53
2019-04-27T09:30:47.550Z,8.85
2019-04-27T09:33:22.096Z,8.48
2019-04-27T09:35:59.122Z,7.95
2019-04-27T09:38:33.050Z,7.15
2019-04-27T09:41:07.983Z,6.10
2019-04-27T09:43:38.551Z,7.35
2019-04-27T09:46:10.874Z,7.12
2019-04-27T09:48:41.694Z,8.18
2019-04-27T09:51:13.630Z,9.40
2019-04-27T09:53:45.819Z,11.30
2019-04-27T09:56:18.801Z,8.43
2019-04-27T09:58:49.072Z,9.38
2019-04-27T10:01:22.299Z,7.37
2019-04-27T10:03:53.138Z,7.12
2019-04-27T10:06:24.050Z,8.50
2019-04-27T10:08:53.335Z,9.55
2019-04-27T10:11:27.142Z,7.10
2019-04-27T10:13:57.528Z,7.70
2019-04-27T10:16:29.259Z,8.80
2019-04-27T10:19:00.731Z,8.95
2019-04-27T10:21:30.260Z,10.32
2019-04-27T10:23:59.560Z,8.13
2019-04-27T10:26:29.109Z,10.72
2019-04-27T10:29:00.582Z,10.28
2019-04-27T10:31:31.427Z,6.60
2019-04-27T10:34:00.767Z,10.78
2019-04-27T10:36:41.538Z,6.53
2019-04-27T10:39:16.995Z,10.40
2019-04-27T10:41:46.701Z,8.98
2019-04-27T10:44:17.087Z,6.30
2019-04-27T10:46:49.920Z,10.25
2019-04-27T10:49:20.721Z,8.73
2019-04-27T10:51:55.794Z,7.17
2019-04-27T10:54:25.234Z,10.82
2019-04-27T10:56:55.939Z,7.62
2019-04-27T10:59:27.580Z,6.90
2019-04-27T11:01:58.390Z,7.70
2019-04-27T11:04:46.194Z,6.08
2019-04-27T11:07:17.458Z,8.28
2019-04-27T11:09:47.333Z,6.67
2019-04-27T11:12:18.887Z,5.22
2019-04-27T11:14:51.308Z,9.38
2019-04-27T11:17:22.380Z,4.80
2019-04-27T11:19:55.082Z,4.72
2019-04-27T11:22:26.001Z,4.15
2019-04-27T11:25:01.201Z,3.33
2019-04-27T11:27:32.983Z,3.15
2019-04-27T11:30:02.344Z,6.22
2019-04-27T11:32:36.299Z,5.83
2019-04-27T11:35:23.235Z,3.02
2019-04-27T11:37:57.698Z,4.00
2019-04-27T11:40:33.585Z,3.20
2019-04-27T11:43:03.471Z,1.95
2019-04-27T11:45:37.477Z,2.05
2019-04-27T11:48:09.218Z,2.83
2019-04-27T11:50:41.090Z,2.55
2019-04-27T11:53:22.096Z,1.37
2019-04-27T11:55:48.010Z,2.83
2019-04-27T11:58:18.060Z,2.20
2019-04-27T12:00:48.312Z,2.87
2019-04-27T12:03:18.814Z,2.00
2019-04-27T12:05:51.460Z,2.08
2019-04-27T12:08:24.282Z,2.53
2019-04-27T12:11:00.790Z,3.05
2019-04-27T12:13:35.941Z,3.60
2019-04-27T12:16:13.384Z,2.85
2019-04-27T12:18:43.001Z,2.87
2019-04-27T12:21:15.848Z,2.42
2019-04-27T12:23:47.058Z,1.37
2019-04-27T12:26:33.505Z,2.05
2019-04-27T12:29:06.269Z,1.95
2019-04-27T12:31:42.925Z,2.12
2019-04-27T12:34:12.915Z,1.92
2019-04-27T12:36:43.266Z,2.47
2019-04-27T12:39:13.331Z,1.65
2019-04-27T12:41:46.344Z,2.33
2019-04-27T12:44:18.242Z,2.77
2019-04-27T12:46:47.788Z,2.85
2019-04-27T12:49:17.084Z,1.90
2019-04-27T12:51:47.973Z,3.15
2019-04-27T12:54:20.422Z,1.42
2019-04-27T12:56:55.874Z,2.50
2019-04-27T12:59:46.959Z,2.47
2019-04-27T13:02:16.788Z,3.90
2019-04-27T13:04:47.623Z,1.25
2019-04-27T13:07:21.647Z,4.17
2019-04-27T13:09:50.860Z,4.17
2019-04-27T13:12:22.775Z,5.67
2019-04-27T13:14:52.065Z,4.72
2019-04-27T13:17:21.365Z,4.62
2019-04-27T13:19:55.964Z,3.80
2019-04-27T13:22:25.219Z,3.72
2019-04-27T13:24:56.466Z,8.03
2019-04-27T13:27:26.999Z,4.17
2019-04-27T13:29:57.914Z,5.20
2019-04-27T13:32:28.528Z,5.55
2019-04-27T13:35:00.516Z,5.58
2019-04-27T13:37:33.923Z,7.45
2019-04-27T13:40:09.687Z,6.65
2019-04-27T13:42:57.570Z,6.92
2019-04-27T13:45:29.201Z,7.17
2019-04-27T13:48:18.702Z,4.60
2019-04-27T13:50:53.767Z,7.03
2019-04-27T13:53:27.268Z,4.47
2019-04-27T13:58:30.371Z,7.47
2019-04-27T14:01:03.168Z,7.12
2019-04-27T14:03:36.460Z,3.27
2019-04-27T14:06:05.971Z,4.30
2019-04-27T14:08:35.251Z,8.13
2019-04-27T14:11:06.852Z,9.05
2019-04-27T14:13:39.004Z,6.95
2019-04-27T14:16:09.130Z,4.47
2019-04-27T14:18:40.019Z,6.50
2019-04-27T14:21:09.523Z,4.60
2019-04-27T14:23:38.794Z,6.60
2019-04-27T14:26:09.053Z,5.30
2019-04-27T14:28:39.643Z,6.30
2019-04-27T14:31:09.203Z,4.67
2019-04-27T14:33:40.015Z,5.58
2019-04-27T14:36:14.131Z,5.37
2019-04-27T14:38:43.420Z,7.05
2019-04-27T14:41:13.740Z,5.58
2019-04-27T14:43:44.407Z,6.87
2019-04-27T14:46:16.041Z,5.33
2019-04-27T14:48:46.862Z,5.12
2019-04-27T14:51:18.736Z,8.40
2019-04-27T14:53:51.544Z,6.70
2019-04-27T14:56:24.771Z,5.17
2019-04-27T14:58:54.753Z,7.87
2019-04-27T15:01:29.066Z,7.08
2019-04-27T15:03:59.925Z,5.12
2019-04-27T15:06:35.049Z,6.80
2019-04-27T15:09:07.382Z,9.00
2019-04-27T15:11:38.229Z,3.80
2019-04-27T15:14:09.303Z,4.00
2019-04-27T15:16:42.256Z,6.50
2019-04-27T15:19:19.361Z,5.40
2019-04-27T15:21:56.330Z,5.03
2019-04-27T15:24:24.798Z,4.65
2019-04-27T15:27:00.715Z,4.28
2019-04-27T15:29:29.990Z,6.53
2019-04-27T15:32:09.445Z,7.12
2019-04-27T15:34:42.296Z,4.50
2019-04-27T15:37:14.834Z,4.45
2019-04-27T15:39:50.464Z,6.12
2019-04-27T15:42:41.566Z,4.50
2019-04-27T15:45:15.971Z,5.75
2019-04-27T15:47:50.310Z,4.20
2019-04-27T15:50:18.847Z,7.17
2019-04-27T15:52:49.231Z,6.60
2019-04-27T15:55:32.356Z,5.30
2019-04-27T15:57:53.993Z,4.72
2019-04-27T16:00:28.847Z,3.08
2019-04-27T16:03:01.018Z,3.75
2019-04-27T16:05:33.356Z,5.00
2019-04-27T16:08:10.606Z,6.00
2019-04-27T16:10:40.277Z,3.77
2019-04-27T16:13:15.136Z,4.00
2019-04-27T16:18:18.560Z,4.60
2019-04-27T16:20:49.358Z,6.08
2019-04-27T16:23:19.794Z,5.60
2019-04-27T16:26:11.296Z,6.17
2019-04-27T16:28:43.069Z,6.53
2019-04-27T16:31:18.722Z,5.45
2019-04-27T16:33:54.024Z,7.37
2019-04-27T16:36:25.216Z,10.30
2019-04-27T16:39:03.601Z,9.93
2019-04-27T16:41:37.365Z,3.92
2019-04-27T16:44:11.060Z,4.87
2019-04-27T16:46:42.931Z,5.53
2019-04-27T16:49:15.102Z,4.85
2019-04-27T16:51:48.669Z,8.03
2019-04-27T16:54:28.141Z,8.03
2019-04-27T16:57:03.250Z,5.85
2019-04-27T17:02:11.303Z,3.72
2019-04-27T17:07:37.629Z,2.90
2019-04-27T17:10:09.463Z,5.62
2019-04-27T17:12:43.310Z,5.55
2019-04-27T17:15:18.877Z,3.97
2019-04-27T17:18:14.344Z,6.58
2019-04-27T17:21:00.945Z,6.62
2019-04-27T17:23:32.994Z,5.58
2019-04-27T17:26:20.070Z,4.40
2019-04-27T17:31:38.159Z,4.85
2019-04-27T17:34:10.442Z,5.62
2019-04-27T17:36:41.754Z,6.95
2019-04-27T17:39:13.978Z,6.03
2019-04-27T17:41:49.199Z,4.85
2019-04-27T17:44:23.091Z,6.00
2019-04-27T17:46:55.194Z,8.03
2019-04-27T17:49:25.041Z,4.80
2019-04-27T17:51:55.431Z,4.70
2019-04-27T17:54:30.893Z,7.45
2019-04-27T17:57:05.371Z,4.42
2019-04-27T17:59:37.200Z,5.67
2019-04-27T18:02:08.902Z,5.78
2019-04-27T18:04:45.181Z,4.62
2019-04-27T18:07:21.497Z,5.10
2019-04-27T18:09:52.739Z,3.80
2019-04-27T18:12:25.662Z,4.72
2019-04-27T18:15:01.921Z,6.25
2019-04-27T18:17:35.536Z,3.87
2019-04-27T18:20:11.617Z,4.25
2019-04-27T18:22:42.860Z,5.10
2019-04-27T18:25:13.228Z,2.87
2019-04-27T18:27:52.983Z,3.10
2019-04-27T18:30:28.223Z,7.17
2019-04-27T18:33:01.993Z,2.83
2019-04-27T18:35:52.060Z,5.25
2019-04-27T18:38:23.643Z,3.42
2019-04-27T18:40:54.688Z,4.75
2019-04-27T18:43:33.083Z,3.87
2019-04-27T18:46:04.218Z,3.62
2019-04-27T18:48:40.312Z,6.37
2019-04-27T18:51:14.394Z,5.10
2019-04-27T18:53:54.313Z,5.17
2019-04-27T18:59:26.066Z,5.03
2019-04-27T19:01:58.426Z,7.22
2019-04-27T19:04:28.178Z,5.50
2019-04-27T19:06:58.375Z,5.00
2019-04-27T19:09:41.296Z,6.70
2019-04-27T19:12:02.882Z,4.67
2019-04-27T19:14:35.052Z,4.70
2019-04-27T19:17:12.207Z,4.40
2019-04-27T19:19:43.596Z,6.97
2019-04-27T19:22:14.154Z,4.28
2019-04-27T19:24:46.799Z,3.60
2019-04-27T19:30:29.869Z,7.40
2019-04-27T19:33:00.819Z,6.65
2019-04-27T19:35:30.823Z,8.28
2019-04-27T19:38:02.235Z,6.33
2019-04-27T19:40:40.462Z,7.92
2019-04-27T19:43:30.412Z,8.93
2019-04-27T19:46:01.741Z,9.60
2019-04-27T19:48:32.428Z,10.50
2019-04-27T19:51:06.007Z,8.65
2019-04-27T19:53:54.571Z,6.83
2019-04-27T19:56:23.871Z,9.63
2019-04-27T19:59:00.443Z,5.83
2019-04-27T20:01:40.144Z,9.85
2019-04-27T20:04:30.824Z,9.55
2019-04-27T20:06:58.055Z,11.28
2019-04-27T20:09:29.086Z,8.45
2019-04-27T20:12:00.653Z,11.33
2019-04-27T20:14:31.364Z,11.00
2019-04-27T20:17:03.848Z,8.05
2019-04-27T20:19:37.046Z,12.43
2019-04-27T20:22:07.563Z,5.30
2019-04-27T20:24:41.696Z,7.28
2019-04-27T20:27:26.577Z,14.33
2019-04-27T20:30:03.367Z,9.85
2019-04-27T20:32:38.722Z,9.00
2019-04-27T20:35:11.753Z,10.15
2019-04-27T20:40:11.684Z,11.10
2019-04-27T20:42:43.683Z,10.28
2019-04-27T20:45:15.401Z,12.10
2019-04-27T20:47:48.562Z,9.48
2019-04-27T20:50:20.555Z,9.60
2019-04-27T20:52:54.600Z,6.70
2019-04-27T20:55:27.513Z,8.95
2019-04-27T20:58:02.726Z,7.22
2019-04-27T21:00:35.739Z,9.65
2019-04-27T21:03:11.767Z,6.85
2019-04-27T21:05:54.423Z,10.00
2019-04-27T21:08:28.035Z,4.90
2019-04-27T21:10:59.159Z,8.50
2019-04-27T21:13:31.351Z,8.00
2019-04-27T21:16:05.164Z,6.97
2019-04-27T21:18:34.618Z,11.03
2019-04-27T21:21:06.795Z,6.42
2019-04-27T21:23:41.672Z,13.28
2019-04-27T21:26:12.998Z,6.83
2019-04-27T21:28:48.390Z,8.53
2019-04-27T21:31:21.308Z,8.15
2019-04-27T21:33:52.029Z,12.30
2019-04-27T21:36:25.871Z,8.58
2019-04-27T21:38:57.723Z,7.50
2019-04-27T21:41:31.200Z,13.48
2019-04-27T21:44:01.408Z,7.15
2019-04-27T21:46:34.877Z,8.98
2019-04-27T21:49:06.171Z,10.63
2019-04-27T21:51:42.083Z,5.87
2019-04-27T21:54:19.353Z,6.75
2019-04-27T21:56:51.760Z,9.98
2019-04-27T21:59:21.816Z,10.08
2019-04-27T22:01:55.366Z,8.65
2019-04-27T22:04:33.710Z,12.98
2019-04-27T22:07:03.011Z,6.62
2019-04-27T22:09:34.763Z,7.12
2019-04-27T22:12:07.430Z,10.03
2019-04-27T22:14:39.926Z,10.20
2019-04-27T22:17:10.966Z,16.93
2019-04-27T22:19:41.520Z,9.95
2019-04-27T22:22:12.644Z,13.98
2019-04-27T22:24:43.105Z,14.50
2019-04-27T22:27:21.351Z,12.50
2019-04-27T22:29:53.479Z,15.13
2019-04-27T22:32:24.159Z,8.63
2019-04-27T22:34:54.458Z,15.30
2019-04-27T22:37:23.750Z,13.93
2019-04-27T22:39:55.623Z,13.43
2019-04-27T22:42:36.134Z,15.68
2019-04-27T22:45:08.921Z,11.15
2019-04-27T22:47:38.221Z,13.22
2019-04-27T22:50:10.568Z,11.40
2019-04-27T22:52:41.561Z,10.23
2019-04-27T22:55:13.271Z,9.70
2019-04-27T22:57:48.184Z,14.38
2019-04-27T23:00:22.143Z,9.63
2019-04-27T23:05:25.662Z,11.27
2019-04-27T23:07:55.466Z,14.50
2019-04-27T23:10:25.518Z,11.90
2019-04-27T23:12:56.577Z,16.87
2019-04-27T23:15:41.168Z,12.50
2019-04-27T23:18:13.378Z,16.30
2019-04-27T23:20:42.658Z,12.85
2019-04-27T23:23:13.844Z,15.28
2019-04-27T23:25:43.377Z,10.53
2019-04-27T23:28:15.601Z,16.97
2019-04-27T23:30:46.531Z,9.78
2019-04-27T23:33:17.120Z,11.95
2019-04-27T23:35:51.610Z,12.60
2019-04-27T23:38:22.066Z,11.08
2019-04-27T23:40:51.817Z,12.37
2019-04-27T23:43:21.435Z,13.95
2019-04-27T23:45:51.658Z,9.83
2019-04-27T23:48:22.684Z,16.67
2019-04-27T23:50:54.810Z,8.90
2019-04-27T23:53:26.066Z,8.68
2019-04-27T23:56:01.251Z,10.55
2019-04-27T23:58:37.158Z,12.33
